createdAt,value
2019-05-21T00:01:55.226Z,107.75
2019-05-21T00:04:28.188Z,113.32
2019-05-21T00:06:53.811Z,119.20
2019-05-21T00:09:22.909Z,122.82
2019-05-21T00:11:52.884Z,108.77
2019-05-21T00:14:22.117Z,109.22
2019-05-21T00:16:52.109Z,114.40
2019-05-21T00:19:20.559Z,111.22
2019-05-21T00:21:50.162Z,115.95
2019-05-21T00:24:18.766Z,105.47
2019-05-21T00:26:47.254Z,104.47
2019-05-21T00:29:51.738Z,101.58
2019-05-21T00:32:56.237Z,107.20
2019-05-21T00:36:00.935Z,107.97
2019-05-21T00:39:05.624Z,88.00
2019-05-21T00:42:05.119Z,78.57
2019-05-21T00:44:43.670Z,81.17
2019-05-21T00:47:13.215Z,95.47
2019-05-21T00:49:43.156Z,87.90
2019-05-21T00:52:11.662Z,86.85
2019-05-21T00:54:40.122Z,86.53
2019-05-21T00:57:08.544Z,82.54
2019-05-21T00:59:36.985Z,81.28
2019-05-21T01:02:05.843Z,76.17
2019-05-21T01:04:35.766Z,84.13
2019-05-21T01:07:04.543Z,81.57
2019-05-21T01:09:33.026Z,74.85
2019-05-21T01:12:01.471Z,75.05
2019-05-21T01:14:29.890Z,75.37
2019-05-21T01:16:58.334Z,62.80
2019-05-21T01:19:26.789Z,74.67
2019-05-21T01:21:55.284Z,71.47
2019-05-21T01:24:23.728Z,64.20
2019-05-21T01:26:52.557Z,67.58
2019-05-21T01:29:21.057Z,72.15
2019-05-21T01:31:49.473Z,72.47
2019-05-21T01:34:18.003Z,73.90
2019-05-21T01:36:46.787Z,68.30
2019-05-21T01:39:15.528Z,57.43
2019-05-21T01:41:44.073Z,65.00
2019-05-21T01:44:15.435Z,66.17
2019-05-21T01:46:46.782Z,65.78
2019-05-21T01:49:15.484Z,57.78
2019-05-21T01:51:44.097Z,52.48
2019-05-21T01:54:12.523Z,51.55
2019-05-21T01:56:40.932Z,56.08
2019-05-21T01:59:09.388Z,47.15
2019-05-21T02:01:37.883Z,56.58
2019-05-21T02:04:06.659Z,50.60
2019-05-21T02:06:36.574Z,48.48
2019-05-21T02:09:07.581Z,43.08
2019-05-21T02:11:36.007Z,49.90
2019-05-21T02:14:04.799Z,43.50
2019-05-21T02:16:34.733Z,39.10
2019-05-21T02:19:03.211Z,34.23
2019-05-21T02:21:31.635Z,48.17
2019-05-21T02:24:00.057Z,40.33
2019-05-21T02:26:29.968Z,39.45
2019-05-21T02:29:00.044Z,37.30
2019-05-21T02:31:28.543Z,40.12
2019-05-21T02:33:56.963Z,35.65
2019-05-21T02:36:25.405Z,38.83
2019-05-21T02:38:53.915Z,33.88
2019-05-21T02:41:22.333Z,34.10
2019-05-21T02:43:50.826Z,34.27
2019-05-21T02:46:19.460Z,37.78
2019-05-21T02:48:47.967Z,37.50
2019-05-21T02:51:18.134Z,33.37
2019-05-21T02:53:46.521Z,30.65
2019-05-21T02:56:15.199Z,30.85
2019-05-21T02:58:43.614Z,32.80
2019-05-21T03:01:21.226Z,31.25
2019-05-21T03:03:50.088Z,32.40
2019-05-21T03:06:18.751Z,29.50
2019-05-21T03:08:47.248Z,27.00
2019-05-21T03:11:15.685Z,30.08
2019-05-21T03:13:44.141Z,29.35
2019-05-21T03:16:12.559Z,30.48
2019-05-21T03:18:40.972Z,30.95
2019-05-21T03:21:09.377Z,25.03
2019-05-21T03:23:37.794Z,24.77
2019-05-21T03:26:08.453Z,27.52
2019-05-21T03:28:39.830Z,25.15
2019-05-21T03:31:08.412Z,29.10
2019-05-21T03:33:36.824Z,24.47
2019-05-21T03:36:05.217Z,23.47
2019-05-21T03:38:33.647Z,29.05
2019-05-21T03:41:02.338Z,28.87
2019-05-21T03:43:30.709Z,22.02
2019-05-21T03:45:59.143Z,18.45
2019-05-21T03:48:27.514Z,21.20
2019-05-21T03:50:58.695Z,23.52
2019-05-21T03:53:31.681Z,23.20
2019-05-21T03:56:00.116Z,21.73
2019-05-21T03:58:28.529Z,19.80
2019-05-21T04:00:57.015Z,22.02
2019-05-21T04:03:27.991Z,19.53
2019-05-21T04:05:57.938Z,21.40
2019-05-21T04:08:26.335Z,20.57
2019-05-21T04:10:54.752Z,21.15
2019-05-21T04:13:24.827Z,23.83
2019-05-21T04:16:07.012Z,26.87
2019-05-21T04:18:42.805Z,21.48
2019-05-21T04:21:11.253Z,28.60
2019-05-21T04:23:39.671Z,26.30
2019-05-21T04:26:08.082Z,25.85
2019-05-21T04:28:36.527Z,26.45
2019-05-21T04:31:05.001Z,28.38
2019-05-21T04:33:33.708Z,21.52
2019-05-21T04:36:02.150Z,32.70
2019-05-21T04:38:30.649Z,27.90
2019-05-21T04:40:59.336Z,30.45
2019-05-21T04:43:27.800Z,32.55
2019-05-21T04:45:56.240Z,34.60
2019-05-21T04:48:24.645Z,36.85
2019-05-21T04:50:53.094Z,40.00
2019-05-21T04:53:23.151Z,38.53
2019-05-21T04:55:51.662Z,41.25
2019-05-21T04:58:20.486Z,36.10
2019-05-21T05:00:52.159Z,39.85
2019-05-21T05:03:20.654Z,44.40
2019-05-21T05:05:49.509Z,41.90
2019-05-21T05:08:19.577Z,41.60
2019-05-21T05:10:49.411Z,47.73
2019-05-21T05:13:18.280Z,35.92
2019-05-21T05:15:46.713Z,46.85
2019-05-21T05:18:15.569Z,44.05
2019-05-21T05:20:44.055Z,45.15
2019-05-21T05:23:14.509Z,48.10
2019-05-21T05:25:42.946Z,43.35
2019-05-21T05:28:11.617Z,48.77
2019-05-21T05:30:40.041Z,46.18
2019-05-21T05:33:08.455Z,49.88
2019-05-21T05:35:38.506Z,41.80
2019-05-21T05:38:06.967Z,51.05
2019-05-21T05:40:35.417Z,48.17
2019-05-21T05:43:04.461Z,51.48
2019-05-21T05:45:32.895Z,45.67
2019-05-21T05:48:01.327Z,34.98
2019-05-21T05:50:39.899Z,40.83
2019-05-21T05:53:08.329Z,45.80
2019-05-21T05:55:36.966Z,43.30
2019-05-21T05:58:05.505Z,44.10
2019-05-21T06:00:34.063Z,45.63
2019-05-21T06:03:02.748Z,39.33
2019-05-21T06:05:31.146Z,38.80
2019-05-21T06:08:00.516Z,48.40
2019-05-21T06:10:29.479Z,42.62
2019-05-21T06:12:58.076Z,37.98
2019-05-21T06:15:26.492Z,43.30
2019-05-21T06:17:54.922Z,28.80
2019-05-21T06:20:23.923Z,42.33
2019-05-21T06:22:52.330Z,29.83
2019-05-21T06:25:21.940Z,34.70
2019-05-21T06:27:50.349Z,44.50
2019-05-21T06:30:19.091Z,36.63
2019-05-21T06:32:47.726Z,39.10
2019-05-21T06:35:16.429Z,43.40
2019-05-21T06:37:44.841Z,31.30
2019-05-21T06:40:14.040Z,37.93
2019-05-21T06:42:42.446Z,27.67
2019-05-21T06:45:11.557Z,29.23
2019-05-21T06:47:42.788Z,22.22
2019-05-21T06:50:11.590Z,20.27
2019-05-21T06:52:40.123Z,28.32
2019-05-21T06:55:11.532Z,20.77
2019-05-21T06:57:39.928Z,18.62
2019-05-21T07:00:10.302Z,21.85
2019-05-21T07:02:38.702Z,21.70
2019-05-21T07:05:08.779Z,14.03
2019-05-21T07:07:37.297Z,17.67
2019-05-21T07:10:07.834Z,11.70
2019-05-21T07:12:36.278Z,14.47
2019-05-21T07:15:06.850Z,11.55
2019-05-21T07:17:35.299Z,14.98
2019-05-21T07:20:07.639Z,18.20
2019-05-21T07:22:36.321Z,10.58
2019-05-21T07:25:07.019Z,10.85
2019-05-21T07:27:43.716Z,14.13
2019-05-21T07:30:12.374Z,5.92
2019-05-21T07:32:40.834Z,0.57
2019-05-21T07:35:11.022Z,0.10
2019-05-21T07:37:39.606Z,0.07
2019-05-21T07:40:09.131Z,0.20
2019-05-21T07:42:37.573Z,0.00
2019-05-21T07:45:07.423Z,0.00
2019-05-21T07:47:35.910Z,0.13
2019-05-21T07:50:07.325Z,0.00
2019-05-21T07:52:35.788Z,0.00
2019-05-21T07:55:05.531Z,0.00
2019-05-21T07:57:33.954Z,0.10
2019-05-21T08:00:02.348Z,0.00
2019-05-21T08:02:30.863Z,0.00
2019-05-21T08:05:02.521Z,0.00
2019-05-21T08:07:31.315Z,0.00
2019-05-21T08:09:59.697Z,0.00
2019-05-21T08:12:39.117Z,0.00
2019-05-21T08:14:58.238Z,0.00
2019-05-21T08:17:26.699Z,0.28
2019-05-21T08:19:55.162Z,0.13
2019-05-21T08:22:23.554Z,0.88
2019-05-21T08:24:51.948Z,0.00
2019-05-21T08:27:20.354Z,0.10
2019-05-21T08:29:48.725Z,0.00
2019-05-21T08:32:19.848Z,0.17
2019-05-21T08:34:48.250Z,0.10
2019-05-21T08:37:16.797Z,0.00
2019-05-21T08:39:48.190Z,0.00
2019-05-21T08:42:16.964Z,0.00
2019-05-21T08:44:45.366Z,0.00
2019-05-21T08:47:14.067Z,0.00
2019-05-21T08:49:44.287Z,0.00
2019-05-21T08:52:12.648Z,0.00
2019-05-21T08:54:48.051Z,0.13
2019-05-21T08:57:18.165Z,0.00
2019-05-21T08:59:46.748Z,0.00
2019-05-21T09:02:16.193Z,0.00
2019-05-21T09:04:47.866Z,0.00
2019-05-21T09:07:16.490Z,0.00
2019-05-21T09:09:50.477Z,0.00
2019-05-21T09:12:15.740Z,0.00
2019-05-21T09:14:44.525Z,0.00
2019-05-21T09:17:12.924Z,0.08
2019-05-21T09:19:41.306Z,0.10
2019-05-21T09:22:09.814Z,0.00
2019-05-21T09:24:38.236Z,0.17
2019-05-21T09:27:06.925Z,0.00
2019-05-21T09:29:35.430Z,0.17
2019-05-21T09:32:04.361Z,0.00
2019-05-21T09:34:47.459Z,0.00
2019-05-21T09:37:18.163Z,0.03
2019-05-21T09:39:33.623Z,0.10
2019-05-21T09:42:02.258Z,1.17
2019-05-21T09:44:31.014Z,0.00
2019-05-21T09:46:59.431Z,0.00
2019-05-21T09:49:27.946Z,0.00
2019-05-21T09:51:56.322Z,0.00
2019-05-21T09:54:24.723Z,0.00
2019-05-21T09:56:53.102Z,0.00
2019-05-21T09:59:26.035Z,0.00
2019-05-21T10:02:12.563Z,0.00
2019-05-21T10:04:41.078Z,0.00
2019-05-21T10:07:09.549Z,0.00
2019-05-21T10:09:37.952Z,0.00
2019-05-21T10:12:08.039Z,0.00
2019-05-21T10:14:36.464Z,0.00
2019-05-21T10:17:05.275Z,0.00
2019-05-21T10:19:33.795Z,0.00
2019-05-21T10:22:02.193Z,0.05
2019-05-21T10:24:30.621Z,0.00
2019-05-21T10:26:59.157Z,0.00
2019-05-21T10:29:27.519Z,0.00
2019-05-21T10:31:55.922Z,0.00
2019-05-21T10:34:24.325Z,0.00
2019-05-21T10:36:53.011Z,0.00
2019-05-21T10:39:21.433Z,0.00
2019-05-21T10:41:49.813Z,0.00
2019-05-21T10:44:19.817Z,0.55
2019-05-21T10:46:48.653Z,0.00
2019-05-21T10:49:17.062Z,0.00
2019-05-21T10:52:16.129Z,0.30
2019-05-21T10:54:46.099Z,0.00
2019-05-21T10:57:14.509Z,0.00
2019-05-21T10:59:42.950Z,0.00
2019-05-21T11:02:21.531Z,0.00
2019-05-21T11:04:51.709Z,0.00
2019-05-21T11:07:20.374Z,0.00
2019-05-21T11:09:48.845Z,0.00
2019-05-21T11:12:17.233Z,0.00
2019-05-21T11:14:45.684Z,0.00
2019-05-21T11:17:14.058Z,0.00
2019-05-21T11:19:42.631Z,0.00
2019-05-21T11:22:11.104Z,0.00
2019-05-21T11:24:39.495Z,0.10
2019-05-21T11:27:07.916Z,0.00
2019-05-21T11:29:36.349Z,0.00
2019-05-21T11:32:05.259Z,0.00
2019-05-21T11:34:33.696Z,275.13
2019-05-21T11:37:02.364Z,3.72
2019-05-21T11:39:30.752Z,3.20
2019-05-21T11:41:59.545Z,2.92
2019-05-21T11:44:27.951Z,4.50
2019-05-21T11:46:56.358Z,2.17
2019-05-21T11:49:24.748Z,3.90
2019-05-21T11:51:54.600Z,3.15
2019-05-21T11:54:22.987Z,3.80
2019-05-21T11:56:51.410Z,5.13
2019-05-21T11:59:19.837Z,2.90
2019-05-21T12:01:48.386Z,3.30
2019-05-21T12:04:17.039Z,3.62
2019-05-21T12:06:45.817Z,5.28
2019-05-21T12:09:14.275Z,2.97
2019-05-21T12:11:42.771Z,2.65
2019-05-21T12:14:12.915Z,2.65
2019-05-21T12:16:41.373Z,3.27
2019-05-21T12:19:09.775Z,2.22
2019-05-21T12:21:41.128Z,2.87
2019-05-21T12:24:09.654Z,4.22
2019-05-21T12:26:38.058Z,3.08
2019-05-21T12:29:06.513Z,3.83
2019-05-21T12:31:34.922Z,3.87
2019-05-21T12:34:03.338Z,2.45
2019-05-21T12:36:31.778Z,3.47
2019-05-21T12:39:13.104Z,2.98
2019-05-21T12:41:30.420Z,3.63
2019-05-21T12:43:58.923Z,4.83
2019-05-21T12:46:30.062Z,4.70
2019-05-21T12:48:58.504Z,4.67
2019-05-21T12:51:28.189Z,4.67
2019-05-21T12:53:56.497Z,4.85
2019-05-21T12:56:24.998Z,5.47
2019-05-21T12:58:53.483Z,5.47
2019-05-21T13:01:21.865Z,4.55
2019-05-21T13:03:50.265Z,4.55
2019-05-21T13:06:20.127Z,8.15
2019-05-21T13:08:48.549Z,4.25
2019-05-21T13:11:17.144Z,4.55
2019-05-21T13:13:45.743Z,5.42
2019-05-21T13:16:14.142Z,5.60
2019-05-21T13:18:42.559Z,6.30
2019-05-21T13:21:11.783Z,5.30
2019-05-21T13:23:41.813Z,7.10
2019-05-21T13:26:10.348Z,8.30
2019-05-21T13:28:39.051Z,7.20
2019-05-21T13:31:07.611Z,7.07
2019-05-21T13:33:36.054Z,6.97
2019-05-21T13:36:04.658Z,4.67
2019-05-21T13:38:33.063Z,6.53
2019-05-21T13:41:01.995Z,5.55
2019-05-21T13:43:30.402Z,5.90
2019-05-21T13:45:58.899Z,7.33
2019-05-21T13:48:27.404Z,5.75
2019-05-21T13:50:57.547Z,6.08
2019-05-21T13:53:26.033Z,6.70
2019-05-21T13:55:54.467Z,8.00
2019-05-21T13:58:22.853Z,8.20
2019-05-21T14:00:52.908Z,6.92
2019-05-21T14:03:21.686Z,7.13
2019-05-21T14:05:50.094Z,6.30
2019-05-21T14:08:18.494Z,7.03
2019-05-21T14:10:48.666Z,8.10
2019-05-21T14:13:17.251Z,8.40
2019-05-21T14:15:45.789Z,7.95
2019-05-21T14:18:14.198Z,6.30
2019-05-21T14:20:44.027Z,5.50
2019-05-21T14:23:12.634Z,7.00
2019-05-21T14:25:41.167Z,5.75
2019-05-21T14:28:09.791Z,5.62
2019-05-21T14:30:38.434Z,7.50
2019-05-21T14:33:07.078Z,7.40
2019-05-21T14:35:37.127Z,6.95
2019-05-21T14:38:05.541Z,7.62
2019-05-21T14:40:34.106Z,6.00
2019-05-21T14:43:02.507Z,7.42
2019-05-21T14:45:34.151Z,7.72
2019-05-21T14:48:01.444Z,7.65
2019-05-21T14:50:29.975Z,6.45
2019-05-21T14:52:58.843Z,7.75
2019-05-21T14:55:27.293Z,5.83
2019-05-21T14:57:58.748Z,5.80
2019-05-21T15:00:28.563Z,6.08
2019-05-21T15:02:56.980Z,6.30
2019-05-21T15:05:25.797Z,5.17
2019-05-21T15:07:54.585Z,6.10
2019-05-21T15:10:23.180Z,5.97
2019-05-21T15:12:51.577Z,6.78
2019-05-21T15:15:20.379Z,7.22
2019-05-21T15:17:48.771Z,15.32
2019-05-21T15:20:22.010Z,12.33
2019-05-21T15:22:51.446Z,8.85
2019-05-21T15:25:19.958Z,12.47
2019-05-21T15:27:49.989Z,10.08
2019-05-21T15:30:19.225Z,8.27
2019-05-21T15:32:47.652Z,10.20
2019-05-21T15:35:16.069Z,9.98
2019-05-21T15:37:45.315Z,8.08
2019-05-21T15:40:16.071Z,7.50
2019-05-21T15:42:44.673Z,6.40
2019-05-21T15:45:14.916Z,10.82
2019-05-21T15:47:43.614Z,7.05
2019-05-21T15:50:13.817Z,7.05
2019-05-21T15:52:42.331Z,7.67
2019-05-21T15:55:11.183Z,13.50
2019-05-21T15:57:40.265Z,8.30
2019-05-21T16:00:11.139Z,8.38
2019-05-21T16:02:39.740Z,7.25
2019-05-21T16:05:08.293Z,5.78
2019-05-21T16:07:36.861Z,6.08
2019-05-21T16:10:08.541Z,3.52
2019-05-21T16:12:38.985Z,3.30
2019-05-21T16:15:08.003Z,2.95
2019-05-21T16:17:36.514Z,4.87
2019-05-21T16:20:08.512Z,5.47
2019-05-21T16:22:37.104Z,10.60
2019-05-21T16:25:07.319Z,4.47
2019-05-21T16:27:36.790Z,4.72
2019-05-21T16:30:08.965Z,5.42
2019-05-21T16:32:37.470Z,4.50
2019-05-21T16:35:07.602Z,6.20
2019-05-21T16:37:36.043Z,3.95
2019-05-21T16:40:06.822Z,3.17
2019-05-21T16:42:35.364Z,4.22
2019-05-21T16:45:06.487Z,4.03
2019-05-21T16:47:44.469Z,4.00
2019-05-21T16:50:08.842Z,4.47
2019-05-21T16:52:38.430Z,8.40
2019-05-21T16:55:10.543Z,5.70
2019-05-21T16:57:38.982Z,4.42
2019-05-21T17:00:10.679Z,4.87
2019-05-21T17:02:40.877Z,4.80
2019-05-21T17:05:09.400Z,6.30
2019-05-21T17:07:38.672Z,4.62
2019-05-21T17:10:07.951Z,6.95
2019-05-21T17:12:37.158Z,5.28
2019-05-21T17:15:08.902Z,6.67
2019-05-21T17:17:37.687Z,6.80
2019-05-21T17:20:08.573Z,7.75
2019-05-21T17:22:37.125Z,7.53
2019-05-21T17:25:07.004Z,7.08
2019-05-21T17:27:35.900Z,7.87
2019-05-21T17:30:07.535Z,11.43
2019-05-21T17:32:38.893Z,9.43
2019-05-21T17:35:08.722Z,8.30
2019-05-21T17:37:40.242Z,9.15
2019-05-21T17:40:09.362Z,7.83
2019-05-21T17:42:37.990Z,8.00
2019-05-21T17:45:09.301Z,9.70
2019-05-21T17:47:37.937Z,8.18
2019-05-21T17:50:07.528Z,6.90
2019-05-21T17:52:37.625Z,8.03
2019-05-21T17:55:06.964Z,7.20
2019-05-21T17:57:35.649Z,8.63
2019-05-21T18:00:07.109Z,11.45
2019-05-21T18:02:35.648Z,8.50
2019-05-21T18:05:07.799Z,8.63
2019-05-21T18:07:37.547Z,8.68
2019-05-21T18:10:09.566Z,9.40
2019-05-21T18:12:39.171Z,8.98
2019-05-21T18:15:11.392Z,8.90
2019-05-21T18:17:41.444Z,11.05
2019-05-21T18:20:10.849Z,8.95
2019-05-21T18:22:40.345Z,9.40
2019-05-21T18:25:10.030Z,12.88
2019-05-21T18:27:39.113Z,9.03
2019-05-21T18:30:08.653Z,12.95
2019-05-21T18:32:37.412Z,11.12
2019-05-21T18:35:09.021Z,10.58
2019-05-21T18:37:39.187Z,10.55
2019-05-21T18:40:09.889Z,10.53
2019-05-21T18:42:38.404Z,14.70
2019-05-21T18:45:07.494Z,11.12
2019-05-21T18:47:36.181Z,11.00
2019-05-21T18:50:07.414Z,12.90
2019-05-21T18:52:35.939Z,16.02
2019-05-21T18:55:05.744Z,14.28
2019-05-21T18:57:34.414Z,14.68
2019-05-21T19:00:04.282Z,14.73
2019-05-21T19:02:32.781Z,16.60
2019-05-21T19:05:01.368Z,14.18
2019-05-21T19:07:30.103Z,18.25
2019-05-21T19:10:00.844Z,15.43
2019-05-21T19:12:37.361Z,16.17
2019-05-21T19:14:58.995Z,17.80
2019-05-21T19:17:35.047Z,19.07
2019-05-21T19:19:57.815Z,18.02
2019-05-21T19:22:27.681Z,19.60
2019-05-21T19:24:56.217Z,16.90
2019-05-21T19:27:25.032Z,21.85
2019-05-21T19:29:53.691Z,18.90
2019-05-21T19:32:22.270Z,19.37
2019-05-21T19:34:50.771Z,19.90
2019-05-21T19:37:20.766Z,16.70
2019-05-21T19:39:49.218Z,19.82
2019-05-21T19:42:17.645Z,17.45
2019-05-21T19:44:46.299Z,19.23
2019-05-21T19:47:14.707Z,22.40
2019-05-21T19:49:43.177Z,20.62
2019-05-21T19:52:11.767Z,22.17
2019-05-21T19:54:40.806Z,21.27
2019-05-21T19:57:09.265Z,19.73
2019-05-21T19:59:37.685Z,22.82
2019-05-21T20:02:07.810Z,21.42
2019-05-21T20:04:36.495Z,22.50
2019-05-21T20:07:06.912Z,26.57
2019-05-21T20:09:37.502Z,24.07
2019-05-21T20:12:07.787Z,21.62
2019-05-21T20:14:36.941Z,25.90
2019-05-21T20:17:05.406Z,25.50
2019-05-21T20:19:34.106Z,26.57
2019-05-21T20:22:04.593Z,25.12
2019-05-21T20:24:33.074Z,27.95
2019-05-21T20:27:04.494Z,31.15
2019-05-21T20:29:33.358Z,31.85
2019-05-21T20:32:02.490Z,30.37
2019-05-21T20:34:31.011Z,30.43
2019-05-21T20:36:59.674Z,23.55
2019-05-21T20:39:29.986Z,32.65
2019-05-21T20:41:59.028Z,32.47
2019-05-21T20:44:28.031Z,26.57
2019-05-21T20:46:57.399Z,24.87
2019-05-21T20:49:27.603Z,28.87
2019-05-21T20:51:56.392Z,32.05
2019-05-21T20:54:26.049Z,31.80
2019-05-21T20:56:54.598Z,34.13
2019-05-21T20:59:23.314Z,28.95
2019-05-21T21:01:53.041Z,30.72
2019-05-21T21:04:22.996Z,33.03
2019-05-21T21:06:52.367Z,23.10
2019-05-21T21:09:21.416Z,30.40
2019-05-21T21:11:50.012Z,27.77
2019-05-21T21:14:21.722Z,25.90
2019-05-21T21:16:51.800Z,32.73
2019-05-21T21:19:20.595Z,28.90
2019-05-21T21:21:50.576Z,32.70
2019-05-21T21:24:19.383Z,30.97
2019-05-21T21:26:48.898Z,35.90
2019-05-21T21:29:17.375Z,33.33
2019-05-21T21:31:47.616Z,35.25
2019-05-21T21:34:16.230Z,38.95
2019-05-21T21:36:45.312Z,44.67
2019-05-21T21:39:14.407Z,45.95
2019-05-21T21:41:43.856Z,42.85
2019-05-21T21:44:12.377Z,40.98
2019-05-21T21:46:41.470Z,38.65
2019-05-21T21:49:10.549Z,37.80
2019-05-21T21:51:39.081Z,37.35
2019-05-21T21:54:09.005Z,41.53
2019-05-21T21:56:37.411Z,36.20
2019-05-21T21:59:06.177Z,39.00
2019-05-21T22:01:44.310Z,38.95
2019-05-21T22:04:16.730Z,40.25
2019-05-21T22:06:47.125Z,42.83
2019-05-21T22:09:17.425Z,41.80
2019-05-21T22:11:47.215Z,39.13
2019-05-21T22:14:17.251Z,37.00
2019-05-21T22:16:46.881Z,37.85
2019-05-21T22:19:15.858Z,42.13
2019-05-21T22:21:46.066Z,36.83
2019-05-21T22:24:14.936Z,35.05
2019-05-21T22:26:43.447Z,28.07
2019-05-21T22:29:12.875Z,31.82
2019-05-21T22:31:41.727Z,35.78
2019-05-21T22:34:10.447Z,39.35
2019-05-21T22:36:39.010Z,42.43
2019-05-21T22:39:09.764Z,41.90
2019-05-21T22:41:38.172Z,38.38
2019-05-21T22:44:06.934Z,42.13
2019-05-21T22:46:36.851Z,40.70
2019-05-21T22:49:05.421Z,41.00
2019-05-21T22:51:34.010Z,39.33
2019-05-21T22:54:02.464Z,39.73
2019-05-21T22:56:31.144Z,39.48
2019-05-21T22:58:59.529Z,42.05
2019-05-21T23:01:30.015Z,46.63
2019-05-21T23:04:00.492Z,46.40
2019-05-21T23:06:29.301Z,44.33
2019-05-21T23:08:57.791Z,42.35
2019-05-21T23:11:26.226Z,39.83
2019-05-21T23:13:54.789Z,45.85
2019-05-21T23:16:23.483Z,38.00
2019-05-21T23:18:52.676Z,42.10
2019-05-21T23:21:23.007Z,39.45
2019-05-21T23:23:53.245Z,47.00
2019-05-21T23:26:24.298Z,47.70
2019-05-21T23:28:54.299Z,44.25
2019-05-21T23:31:22.967Z,44.75
2019-05-21T23:33:51.555Z,39.48
2019-05-21T23:36:20.224Z,34.85
2019-05-21T23:38:49.931Z,39.80
2019-05-21T23:41:20.190Z,41.28
2019-05-21T23:43:49.431Z,40.38
2019-05-21T23:46:18.684Z,40.85
2019-05-21T23:48:47.257Z,41.20
2019-05-21T23:51:15.797Z,48.83
2019-05-21T23:53:44.345Z,44.53
2019-05-21T23:56:12.849Z,41.63
2019-05-21T23:58:42.021Z,39.00
